Time;durP1;ratioP1;P1;durP2;ratioP2;P2;SDS_P1;SDS_P2;PMS_P1;PMS_P2;Temp;Humidity;BMP_temperature;BMP_pressure;BME280_temperature;BME280_humidity;BME280_pressure;Samples;Min_cycle;Max_cycle;Signal;HPM_P1;HPM_P2
2023/01/05 00:01:48;;;;;;;3.83;1.20;;;9.40;99.90;;;;;;5052509;28;20204;-79
2023/01/05 00:04:14;;;;;;;2.38;1.10;;;9.50;99.90;;;;;;5055066;28;20245;-79
2023/01/05 00:06:40;;;;;;;3.70;1.15;;;9.50;99.90;;;;;;5055958;28;20207;-79
2023/01/05 00:09:09;;;;;;;2.67;1.30;;;9.50;99.90;;;;;;5057644;28;20178;-79
2023/01/05 00:22:47;;;;;;;1.13;1.00;;;9.60;99.90;;;;;;5057586;28;20165;-79
2023/01/05 00:25:16;;;;;;;0.70;0.70;;;9.60;99.90;;;;;;5057500;28;20174;-79
2023/01/05 00:27:44;;;;;;;1.17;0.70;;;9.60;99.90;;;;;;5055923;28;20210;-79
2023/01/05 00:30:12;;;;;;;0.90;0.90;;;9.60;99.90;;;;;;5055958;28;20178;-79
2023/01/05 00:32:40;;;;;;;1.33;0.70;;;9.60;99.90;;;;;;5055946;28;20186;-79
2023/01/05 00:35:06;;;;;;;1.00;0.90;;;9.70;99.90;;;;;;5055595;28;20575;-79
2023/01/05 00:37:33;;;;;;;1.00;0.90;;;9.70;99.90;;;;;;5055418;28;20209;-79
2023/01/05 00:39:58;;;;;;;0.80;0.80;;;9.70;99.90;;;;;;5055298;28;20186;-79
2023/01/05 00:42:24;;;;;;;1.02;1.00;;;9.60;99.90;;;;;;5055315;28;20174;-79
2023/01/05 00:44:50;;;;;;;0.90;0.90;;;9.60;99.90;;;;;;5056350;28;20545;-79
2023/01/05 00:47:16;;;;;;;0.98;0.90;;;9.70;99.90;;;;;;5054708;28;20665;-80
2023/01/05 00:49:42;;;;;;;1.00;1.00;;;9.70;99.90;;;;;;5054913;28;20170;-80
2023/01/05 00:52:07;;;;;;;0.98;0.85;;;9.70;99.90;;;;;;5054844;28;20186;-80
2023/01/05 00:54:33;;;;;;;2.47;0.90;;;9.70;99.90;;;;;;5054544;28;20182;-80
2023/01/05 00:57:00;;;;;;;0.70;0.70;;;9.70;99.90;;;;;;5054994;28;20308;-80
2023/01/05 00:59:49;;;;;;;1.77;1.00;;;9.70;99.90;;;;;;5054709;28;20217;-80
2023/01/05 01:02:15;;;;;;;1.58;0.77;;;9.70;99.90;;;;;;5056022;28;20221;-80
2023/01/05 01:04:41;;;;;;;1.92;0.70;;;9.70;99.90;;;;;;5055152;28;20653;-80
2023/01/05 01:07:07;;;;;;;0.75;0.68;;;9.70;99.90;;;;;;5055719;28;20209;-80
2023/01/05 01:09:36;;;;;;;1.85;0.75;;;9.80;99.90;;;;;;5054693;28;20551;-80
2023/01/05 01:12:02;;;;;;;0.80;0.80;;;9.80;99.90;;;;;;5054550;28;20179;-80
2023/01/05 01:14:28;;;;;;;0.73;0.73;;;9.80;99.90;;;;;;5054549;28;20170;-80
2023/01/05 01:16:53;;;;;;;1.70;1.00;;;9.70;99.90;;;;;;5054463;28;20665;-80
2023/01/05 01:19:22;;;;;;;1.63;0.60;;;9.70;99.90;;;;;;5054734;28;20254;-80
2023/01/05 01:21:48;;;;;;;3.30;0.90;;;9.70;99.90;;;;;;5054462;28;20206;-80
2023/01/05 01:24:22;;;;;;;1.55;0.70;;;9.70;99.90;;;;;;5055072;28;20216;-80
2023/01/05 01:26:48;;;;;;;0.60;0.60;;;9.60;99.90;;;;;;5053694;28;20210;-80
2023/01/05 01:29:16;;;;;;;0.88;0.60;;;9.60;99.90;;;;;;5055390;28;20170;-80
2023/01/05 01:31:42;;;;;;;0.80;0.50;;;9.60;99.90;;;;;;5054204;28;20174;-80
2023/01/05 01:34:07;;;;;;;0.70;0.70;;;9.60;99.90;;;;;;5053852;28;20177;-80
2023/01/05 01:36:33;;;;;;;1.20;0.80;;;9.60;99.90;;;;;;5053488;28;20572;-80
2023/01/05 01:38:59;;;;;;;0.80;0.80;;;9.60;99.90;;;;;;5053677;28;20178;-80
2023/01/05 01:41:24;;;;;;;1.05;0.80;;;9.60;99.90;;;;;;5053823;28;20174;-80
2023/01/05 01:43:52;;;;;;;0.90;0.90;;;9.60;99.90;;;;;;5053810;28;20633;-80
2023/01/05 01:46:19;;;;;;;1.23;0.88;;;9.60;99.90;;;;;;5053502;28;20244;-80
2023/01/05 01:48:48;;;;;;;0.80;0.80;;;9.60;99.90;;;;;;5053784;28;20174;-80
2023/01/05 01:51:27;;;;;;;0.85;0.85;;;9.60;99.90;;;;;;5053874;28;20274;-80
2023/01/05 01:53:56;;;;;;;0.80;0.80;;;9.50;99.90;;;;;;5055060;28;20155;-80
2023/01/05 01:56:23;;;;;;;0.50;0.50;;;9.60;99.90;;;;;;5053400;28;20229;-79
2023/01/05 01:58:50;;;;;;;0.43;0.43;;;9.60;99.90;;;;;;5054003;28;20274;-79
2023/01/05 02:01:15;;;;;;;0.93;0.70;;;9.60;99.90;;;;;;5054427;28;20185;-79
2023/01/05 02:03:42;;;;;;;0.50;0.50;;;9.60;99.90;;;;;;5053733;28;20186;-79
2023/01/05 02:06:08;;;;;;;0.57;0.57;;;9.60;99.90;;;;;;5053524;28;20207;-79
2023/01/05 02:08:33;;;;;;;0.50;0.50;;;9.60;99.90;;;;;;5053328;28;20181;-79
2023/01/05 02:11:11;;;;;;;2.50;0.50;;;9.60;99.90;;;;;;5053278;28;20268;-79
2023/01/05 02:14:14;;;;;;;3.30;0.73;;;9.60;99.90;;;;;;5054431;28;20181;-79
2023/01/05 02:16:42;;;;;;;0.47;0.47;;;9.70;99.90;;;;;;5053171;28;20202;-79
2023/01/05 02:19:26;;;;;;;0.40;0.40;;;9.70;99.90;;;;;;5053512;28;20173;-79
2023/01/05 02:22:38;;;;;;;1.60;0.75;;;9.70;99.90;;;;;;5053318;28;20254;-79
2023/01/05 02:25:42;;;;;;;1.23;0.57;;;9.70;99.90;;;;;;5053886;28;20178;-79
2023/01/05 02:28:32;;;;;;;0.73;0.60;;;9.60;99.90;;;;;;5045235;28;20274;-79
2023/01/05 02:31:13;;;;;;;0.60;0.60;;;9.60;99.90;;;;;;5053586;28;20629;-79
2023/01/05 02:33:53;;;;;;;3.65;0.73;;;9.70;99.90;;;;;;5052953;28;20177;-79
2023/01/05 02:36:23;;;;;;;1.13;0.50;;;9.70;99.90;;;;;;5053696;28;20220;-79
2023/01/05 02:38:57;;;;;;;1.90;0.80;;;9.80;99.90;;;;;;5053966;28;20170;-79
2023/01/05 02:41:43;;;;;;;3.85;1.00;;;9.80;99.90;;;;;;5052997;28;20179;-79
2023/01/05 02:44:09;;;;;;;2.90;1.00;;;10.00;99.90;;;;;;5052271;28;20281;-79
2023/01/05 02:46:35;;;;;;;2.60;1.10;;;10.10;99.90;;;;;;5052653;28;20320;-79
2023/01/05 02:49:03;;;;;;;2.70;1.27;;;10.00;99.90;;;;;;5053599;28;20637;-79
2023/01/05 02:51:36;;;;;;;7.20;1.77;;;10.00;99.90;;;;;;5053245;28;20181;-79
2023/01/05 02:54:33;;;;;;;4.30;1.73;;;9.90;99.90;;;;;;5052733;28;20174;-79
2023/01/05 02:57:45;;;;;;;5.78;1.50;;;9.90;99.90;;;;;;5053267;28;20552;-79
2023/01/05 03:00:18;;;;;;;5.78;1.88;;;9.90;99.90;;;;;;5052695;28;20171;-79
2023/01/05 03:02:48;;;;;;;4.80;1.40;;;9.80;99.90;;;;;;5053194;28;20544;-79
2023/01/05 03:05:21;;;;;;;4.10;1.48;;;9.70;99.90;;;;;;5054228;28;20178;-79
2023/01/05 03:07:48;;;;;;;7.03;1.80;;;9.70;99.90;;;;;;5052602;28;20220;-79
2023/01/05 03:15:50;;;;;;;7.10;1.88;;;9.50;99.90;;;;;;5054143;28;20161;-79
2023/01/05 03:18:21;;;;;;;7.75;1.90;;;9.50;99.90;;;;;;5052781;28;20189;-79
2023/01/05 03:20:50;;;;;;;6.32;1.80;;;9.40;99.90;;;;;;5053712;28;20220;-79
2023/01/05 03:37:32;;;;;;;8.18;2.05;;;9.40;99.90;;;;;;5053693;28;20259;-79
2023/01/05 03:39:59;;;;;;;8.77;1.88;;;9.40;99.90;;;;;;5055293;28;20178;-79
2023/01/05 03:42:25;;;;;;;6.95;1.90;;;9.40;99.90;;;;;;5057716;28;20189;-79
2023/01/05 03:44:51;;;;;;;4.60;1.70;;;9.40;99.90;;;;;;5056408;28;20189;-79
2023/01/05 03:47:17;;;;;;;6.10;1.65;;;9.40;99.90;;;;;;5056120;28;20278;-79
2023/01/05 03:49:42;;;;;;;5.30;1.60;;;9.40;99.90;;;;;;5056177;28;20206;-79
2023/01/05 03:52:08;;;;;;;5.75;2.00;;;9.40;99.90;;;;;;5056950;28;20224;-79
2023/01/05 03:54:33;;;;;;;8.10;3.50;;;9.40;99.90;;;;;;5056774;28;20183;-79
2023/01/05 03:56:59;;;;;;;6.57;2.80;;;9.40;99.90;;;;;;5055931;28;20284;-79
2023/01/05 03:59:25;;;;;;;9.27;3.70;;;9.40;99.90;;;;;;5056382;28;20548;-79
2023/01/05 04:01:50;;;;;;;9.60;3.15;;;9.50;99.90;;;;;;5057566;28;20182;-79
2023/01/05 04:04:16;;;;;;;10.15;3.78;;;9.40;99.90;;;;;;5056512;28;20174;-79
2023/01/05 04:06:41;;;;;;;15.20;9.77;;;9.50;99.90;;;;;;5064814;28;20202;-79
2023/01/05 04:09:07;;;;;;;9.15;5.80;;;9.50;99.90;;;;;;5067828;28;20178;-79
2023/01/05 04:11:32;;;;;;;10.93;4.80;;;9.50;99.90;;;;;;5070564;28;20177;-79
2023/01/05 04:13:58;;;;;;;9.93;3.90;;;9.40;99.90;;;;;;5069442;28;20178;-79
2023/01/05 04:16:24;;;;;;;11.77;4.88;;;9.30;99.90;;;;;;5070109;28;20202;-79
2023/01/05 04:18:49;;;;;;;6.55;4.38;;;9.30;99.90;;;;;;5070031;28;20182;-79
2023/01/05 04:21:15;;;;;;;13.18;5.25;;;9.30;99.90;;;;;;5070199;28;20261;-79
2023/01/05 04:23:40;;;;;;;12.98;4.78;;;9.30;99.90;;;;;;5069925;28;20653;-79
2023/01/05 04:26:06;;;;;;;11.93;2.75;;;9.30;99.90;;;;;;5066643;28;20205;-79
2023/01/05 04:28:32;;;;;;;10.95;6.05;;;9.30;99.90;;;;;;5066038;28;20187;-79
2023/01/05 04:30:58;;;;;;;106.10;78.45;;;9.30;99.90;;;;;;5066101;28;20179;-79
2023/01/05 04:33:24;;;;;;;22.75;13.38;;;9.30;99.90;;;;;;5066590;28;20194;-79
2023/01/05 04:35:50;;;;;;;17.55;10.32;;;9.40;99.90;;;;;;5065525;28;20184;-79
2023/01/05 04:38:16;;;;;;;12.40;6.15;;;9.30;99.90;;;;;;5066957;28;20265;-79
2023/01/05 04:40:41;;;;;;;11.70;3.80;;;9.30;99.90;;;;;;5066081;28;20189;-79
2023/01/05 04:43:07;;;;;;;8.85;3.38;;;9.30;99.90;;;;;;5065806;28;20282;-79
2023/01/05 04:45:32;;;;;;;10.73;3.20;;;9.30;99.90;;;;;;5066251;28;20174;-79
2023/01/05 04:47:58;;;;;;;12.18;3.55;;;9.20;99.90;;;;;;5065199;28;20198;-79
2023/01/05 04:50:24;;;;;;;11.85;3.30;;;9.10;99.90;;;;;;5065537;28;20170;-79
2023/01/05 04:52:50;;;;;;;14.75;3.10;;;9.00;99.90;;;;;;5064490;28;20178;-79
2023/01/05 04:55:16;;;;;;;10.95;2.78;;;9.10;99.90;;;;;;5064491;28;20237;-79
2023/01/05 04:57:41;;;;;;;14.95;2.92;;;9.10;99.90;;;;;;5064624;28;20245;-79
2023/01/05 05:00:08;;;;;;;11.32;2.78;;;9.00;99.90;;;;;;5065223;28;20625;-79
2023/01/05 05:02:33;;;;;;;12.25;3.35;;;9.00;99.90;;;;;;5063592;28;20653;-79
2023/01/05 05:04:59;;;;;;;11.52;3.05;;;9.10;99.90;;;;;;5065195;28;20189;-79
2023/01/05 05:07:25;;;;;;;12.63;2.90;;;9.10;99.90;;;;;;5064209;28;20300;-79
2023/01/05 05:09:50;;;;;;;13.63;3.20;;;9.30;99.90;;;;;;5064073;28;20237;-79
2023/01/05 05:12:19;;;;;;;11.50;3.42;;;9.40;99.90;;;;;;5064381;28;20178;-79
2023/01/05 05:14:45;;;;;;;15.75;3.40;;;9.40;99.90;;;;;;5063948;28;20529;-79
2023/01/05 05:17:11;;;;;;;12.23;3.50;;;9.40;99.90;;;;;;5063522;28;20216;-79
2023/01/05 05:19:39;;;;;;;17.38;2.95;;;9.30;99.90;;;;;;5063106;28;20173;-79
2023/01/05 05:22:04;;;;;;;14.45;3.95;;;9.20;99.90;;;;;;5063405;28;20174;-79
2023/01/05 05:24:30;;;;;;;11.65;3.00;;;9.20;99.90;;;;;;5062834;28;20192;-79
2023/01/05 05:26:56;;;;;;;10.38;2.90;;;9.20;99.90;;;;;;5062762;28;20202;-79
2023/01/05 05:29:22;;;;;;;12.95;3.25;;;9.20;99.90;;;;;;5064259;28;20178;-79
2023/01/05 05:31:48;;;;;;;10.13;3.10;;;9.20;99.90;;;;;;5063029;28;20170;-79
2023/01/05 05:34:14;;;;;;;6.72;2.25;;;9.20;99.90;;;;;;5063350;28;20189;-79
2023/01/05 05:36:39;;;;;;;11.35;2.88;;;9.20;99.90;;;;;;5062339;28;20209;-79
2023/01/05 05:39:05;;;;;;;8.25;2.40;;;9.20;99.90;;;;;;5062863;28;20217;-79
2023/01/05 05:41:30;;;;;;;13.20;3.22;;;9.20;99.90;;;;;;5062274;28;20273;-79
2023/01/05 05:43:59;;;;;;;11.02;2.92;;;9.10;99.90;;;;;;5062218;28;20174;-79
2023/01/05 05:46:26;;;;;;;10.55;2.92;;;9.10;99.90;;;;;;5062071;28;20292;-79
2023/01/05 05:48:52;;;;;;;6.53;1.98;;;9.10;99.90;;;;;;5062408;28;20185;-79
2023/01/05 05:51:17;;;;;;;8.10;2.10;;;9.20;99.90;;;;;;5061408;28;20625;-79
2023/01/05 05:53:43;;;;;;;8.73;2.67;;;9.20;99.90;;;;;;5062011;28;20174;-79
2023/01/05 05:56:08;;;;;;;11.18;2.60;;;9.30;99.90;;;;;;5061678;28;20213;-79
2023/01/05 05:58:34;;;;;;;6.38;2.20;;;9.30;99.90;;;;;;5061582;28;20235;-79
2023/01/05 06:00:59;;;;;;;6.57;2.35;;;9.20;99.90;;;;;;5061621;28;20178;-79
2023/01/05 06:03:25;;;;;;;7.25;1.92;;;9.20;99.90;;;;;;5061102;28;20265;-79
2023/01/05 06:05:51;;;;;;;10.10;2.63;;;9.10;99.90;;;;;;5060814;28;20174;-79
2023/01/05 06:08:16;;;;;;;8.60;2.55;;;9.00;99.90;;;;;;5060719;28;20198;-79
2023/01/05 06:10:42;;;;;;;7.82;2.03;;;9.00;99.90;;;;;;5060603;28;20178;-79
2023/01/05 06:13:07;;;;;;;12.10;2.83;;;8.80;99.90;;;;;;5061847;28;20645;-79
2023/01/05 06:15:33;;;;;;;8.20;2.50;;;8.80;99.90;;;;;;5061703;28;20629;-79
2023/01/05 06:17:58;;;;;;;10.00;2.35;;;8.80;99.90;;;;;;5060541;28;20618;-80
2023/01/05 06:20:24;;;;;;;10.55;2.60;;;8.80;99.90;;;;;;5060376;28;20555;-80
2023/01/05 06:22:49;;;;;;;10.57;2.80;;;8.80;99.90;;;;;;5060056;28;20189;-79
2023/01/05 06:25:15;;;;;;;11.57;2.42;;;8.80;99.90;;;;;;5059726;28;20179;-79
2023/01/05 06:27:41;;;;;;;10.30;2.80;;;8.70;99.90;;;;;;5060374;28;20340;-79
2023/01/05 06:30:07;;;;;;;9.80;2.53;;;8.70;99.90;;;;;;5058401;28;20241;-79
2023/01/05 06:32:33;;;;;;;11.18;2.72;;;8.60;99.90;;;;;;5058958;28;20178;-79
2023/01/05 06:34:58;;;;;;;12.25;2.58;;;8.60;99.90;;;;;;5058781;28;20241;-79
2023/01/05 06:37:24;;;;;;;11.07;2.75;;;8.60;99.90;;;;;;5058996;28;20201;-78
2023/01/05 06:39:49;;;;;;;8.77;2.25;;;8.60;99.90;;;;;;5059205;28;20221;-79
2023/01/05 06:42:15;;;;;;;10.32;2.75;;;8.60;99.90;;;;;;5060142;28;20178;-80
2023/01/05 06:44:41;;;;;;;6.35;2.05;;;8.60;99.90;;;;;;5060050;28;20220;-79
2023/01/05 06:47:07;;;;;;;8.52;2.65;;;8.60;99.90;;;;;;5058526;28;20278;-79
2023/01/05 06:49:32;;;;;;;8.60;2.40;;;8.50;99.90;;;;;;5059058;28;20237;-79
2023/01/05 06:51:58;;;;;;;7.60;2.30;;;8.50;99.90;;;;;;5060234;28;20170;-79
2023/01/05 06:54:23;;;;;;;5.25;1.85;;;8.60;99.90;;;;;;5058793;28;20178;-79
2023/01/05 06:56:49;;;;;;;8.35;2.17;;;8.50;99.90;;;;;;5058984;28;20226;-79
2023/01/05 06:59:14;;;;;;;7.68;2.03;;;8.60;99.90;;;;;;5058947;28;20179;-79
2023/01/05 07:01:40;;;;;;;9.45;2.58;;;8.70;99.90;;;;;;5058073;28;20182;-79
2023/01/05 07:04:06;;;;;;;9.52;2.72;;;8.60;99.90;;;;;;5058171;28;20186;-79
2023/01/05 07:06:33;;;;;;;14.88;5.15;;;8.60;99.90;;;;;;5057447;28;20237;-79
2023/01/05 07:08:59;;;;;;;24.73;13.88;;;8.70;99.90;;;;;;5058193;28;20178;-79
2023/01/05 07:11:24;;;;;;;13.13;5.35;;;8.70;99.90;;;;;;5057715;28;20178;-78
2023/01/05 07:13:50;;;;;;;11.15;5.05;;;8.70;99.90;;;;;;5062276;28;20546;-79
2023/01/05 07:16:16;;;;;;;13.88;4.95;;;8.70;99.90;;;;;;5061657;28;20235;-79
2023/01/05 07:18:42;;;;;;;12.70;4.45;;;8.80;99.90;;;;;;5060151;28;20635;-79
2023/01/05 07:21:07;;;;;;;17.67;7.57;;;8.80;99.90;;;;;;5060998;28;20266;-80
2023/01/05 07:23:36;;;;;;;13.75;4.97;;;8.80;99.90;;;;;;5063546;28;20507;-79
2023/01/05 07:26:13;;;;;;;10.25;4.28;;;8.80;99.90;;;;;;5059442;28;20337;-79
2023/01/05 07:28:38;;;;;;;20.55;8.65;;;8.70;99.90;;;;;;5061207;28;20584;-79
2023/01/05 07:31:06;;;;;;;20.33;9.98;;;8.80;99.90;;;;;;5061349;28;20202;-79
2023/01/05 07:33:32;;;;;;;16.20;6.88;;;8.70;99.90;;;;;;5060862;28;20186;-79
2023/01/05 07:36:02;;;;;;;11.32;5.60;;;8.70;99.90;;;;;;5059419;28;20182;-79
2023/01/05 07:38:27;;;;;;;10.00;4.85;;;8.70;99.90;;;;;;5059717;28;20704;-79
2023/01/05 07:40:53;;;;;;;11.77;3.83;;;8.80;99.90;;;;;;5059639;28;20185;-79
2023/01/05 07:43:22;;;;;;;12.15;3.22;;;8.70;99.90;;;;;;5059496;28;20208;-79
2023/01/05 07:45:48;;;;;;;14.25;3.55;;;8.80;99.90;;;;;;5061532;28;20166;-79
2023/01/05 07:48:13;;;;;;;13.73;3.40;;;8.80;99.90;;;;;;5060689;28;20255;-79
2023/01/05 07:50:39;;;;;;;14.95;3.47;;;8.80;99.90;;;;;;5061082;28;20181;-79
2023/01/05 07:53:04;;;;;;;10.80;3.47;;;8.80;99.90;;;;;;5060596;28;20174;-79
2023/01/05 07:55:30;;;;;;;11.85;3.30;;;8.80;99.90;;;;;;5059245;28;20185;-79
2023/01/05 07:57:57;;;;;;;14.68;3.63;;;8.80;99.90;;;;;;5058630;28;20202;-79
2023/01/05 08:00:22;;;;;;;12.18;3.05;;;8.80;99.90;;;;;;5061265;28;20177;-79
2023/01/05 08:02:48;;;;;;;11.15;3.70;;;8.80;99.90;;;;;;5059861;28;20281;-79
2023/01/05 08:05:14;;;;;;;9.50;3.25;;;8.80;99.90;;;;;;5060021;28;20212;-79
2023/01/05 08:07:39;;;;;;;14.48;4.05;;;8.80;99.90;;;;;;5060050;28;20214;-79
2023/01/05 08:15:33;;;;;;;13.45;2.88;;;8.80;99.90;;;;;;5060954;28;20237;-79
2023/01/05 08:17:59;;;;;;;11.38;3.38;;;8.90;99.90;;;;;;5058728;28;20221;-79
2023/01/05 08:20:24;;;;;;;11.35;3.03;;;8.90;99.90;;;;;;5058931;28;20558;-79
2023/01/05 08:22:51;;;;;;;12.27;3.05;;;8.80;99.90;;;;;;5059489;28;20560;-79
2023/01/05 08:25:17;;;;;;;11.48;4.07;;;8.90;99.90;;;;;;5057534;28;20186;-80
2023/01/05 08:27:43;;;;;;;15.63;3.88;;;8.80;99.90;;;;;;5058835;28;20206;-79
2023/01/05 08:30:10;;;;;;;11.70;3.58;;;8.80;99.90;;;;;;5059639;28;20178;-79
2023/01/05 08:32:35;;;;;;;12.20;4.07;;;8.80;99.90;;;;;;5057908;28;20208;-79
2023/01/05 08:35:01;;;;;;;12.80;3.95;;;8.90;99.90;;;;;;5057774;28;20174;-79
2023/01/05 08:37:26;;;;;;;16.73;6.50;;;8.90;99.90;;;;;;5057329;28;20205;-79
2023/01/05 08:39:52;;;;;;;9.57;3.10;;;8.80;99.90;;;;;;5057438;28;20182;-79
2023/01/05 08:42:18;;;;;;;15.13;3.35;;;8.90;99.90;;;;;;5058184;28;20206;-80
2023/01/05 08:45:01;;;;;;;13.02;3.67;;;8.90;99.90;;;;;;5057529;28;20201;-80
2023/01/05 08:47:27;;;;;;;8.93;2.90;;;8.90;99.90;;;;;;5058214;28;20259;-80
2023/01/05 08:49:52;;;;;;;11.52;3.15;;;8.90;99.90;;;;;;5057211;28;20178;-80
2023/01/05 08:52:18;;;;;;;10.70;4.40;;;8.90;99.90;;;;;;5057132;28;20185;-80
2023/01/05 08:54:44;;;;;;;12.65;3.85;;;8.90;99.90;;;;;;5057316;28;20170;-80
2023/01/05 08:57:09;;;;;;;19.75;9.52;;;9.00;99.90;;;;;;5057677;28;20218;-80
2023/01/05 08:59:35;;;;;;;12.77;6.07;;;9.10;99.90;;;;;;5057453;28;20189;-80
2023/01/05 09:02:00;;;;;;;14.85;6.72;;;9.10;99.90;;;;;;5057013;28;20190;-80
2023/01/05 09:04:26;;;;;;;14.63;6.65;;;9.10;99.90;;;;;;5057238;28;20202;-80
2023/01/05 09:06:54;;;;;;;16.30;8.63;;;9.10;99.90;;;;;;5057517;28;20201;-80
2023/01/05 09:09:23;;;;;;;14.63;6.25;;;9.10;99.90;;;;;;5056994;28;20259;-80
2023/01/05 09:11:48;;;;;;;11.82;4.40;;;9.20;99.90;;;;;;5056444;28;20166;-80
2023/01/05 09:14:14;;;;;;;9.18;3.78;;;9.20;99.90;;;;;;5057828;28;20626;-80
2023/01/05 09:16:40;;;;;;;14.52;5.43;;;9.20;99.90;;;;;;5057029;28;20197;-79
2023/01/05 09:19:05;;;;;;;10.55;4.03;;;9.20;99.90;;;;;;5057173;28;20174;-79
2023/01/05 09:21:31;;;;;;;11.23;6.10;;;9.20;99.90;;;;;;5056609;28;20272;-80
2023/01/05 09:23:57;;;;;;;21.75;10.07;;;9.10;99.90;;;;;;5057304;28;20628;-80
2023/01/05 09:26:22;;;;;;;22.33;13.15;;;9.10;99.90;;;;;;5056170;28;20198;-81
2023/01/05 09:28:48;;;;;;;15.15;6.18;;;9.10;99.90;;;;;;5056639;28;20174;-81
2023/01/05 09:31:20;;;;;;;19.50;5.13;;;9.00;99.90;;;;;;5055934;28;20182;-81
2023/01/05 09:33:45;;;;;;;15.10;4.35;;;9.00;99.90;;;;;;5056535;28;20182;-80
2023/01/05 09:36:16;;;;;;;12.90;4.78;;;9.00;99.90;;;;;;5055135;28;20194;-80
2023/01/05 09:38:42;;;;;;;10.13;3.63;;;9.00;99.90;;;;;;5054905;28;20182;-80
2023/01/05 09:41:35;;;;;;;12.63;4.28;;;9.10;99.90;;;;;;5056006;28;20185;-80
2023/01/05 09:44:11;;;;;;;13.93;4.32;;;9.20;99.90;;;;;;5058324;28;20336;-80
2023/01/05 09:46:40;;;;;;;13.35;4.38;;;9.30;99.90;;;;;;5056483;28;20300;-80
2023/01/05 09:49:11;;;;;;;13.50;4.60;;;9.30;99.90;;;;;;5055108;28;20653;-80
2023/01/05 09:51:37;;;;;;;11.80;3.33;;;9.40;99.90;;;;;;5055366;28;20181;-80
2023/01/05 09:54:03;;;;;;;10.30;3.60;;;9.40;99.90;;;;;;5055183;28;20178;-87
2023/01/05 09:56:37;;;;;;;11.00;4.55;;;9.40;99.90;;;;;;5054155;28;20297;-80
2023/01/05 09:59:31;;;;;;;11.68;4.25;;;9.40;99.90;;;;;;5053939;28;20181;-80
2023/01/05 10:02:13;;;;;;;15.32;4.00;;;9.40;99.90;;;;;;5049488;28;20186;-81
2023/01/05 10:04:39;;;;;;;14.52;4.05;;;9.40;99.90;;;;;;5053276;28;20196;-84
2023/01/05 10:07:09;;;;;;;12.20;3.38;;;9.40;99.90;;;;;;5053614;28;20622;-80
2023/01/05 10:09:38;;;;;;;15.43;6.57;;;9.40;99.90;;;;;;5053319;28;20257;-80
2023/01/05 10:15:15;;;;;;;9.95;3.90;;;9.60;99.90;;;;;;5055410;28;20161;-80
2023/01/05 10:17:41;;;;;;;12.48;5.03;;;9.60;99.90;;;;;;5053197;28;20205;-80
2023/01/05 10:20:46;;;;;;;12.77;4.40;;;9.70;99.90;;;;;;5053430;28;20702;-82
2023/01/05 10:23:43;;;;;;;9.70;3.45;;;9.70;99.90;;;;;;5053409;28;20182;-80
2023/01/05 10:26:23;;;;;;;9.75;3.05;;;9.80;99.90;;;;;;5054603;28;20202;-80
2023/01/05 10:29:12;;;;;;;11.25;3.65;;;9.80;99.90;;;;;;5052825;28;20679;-80
2023/01/05 10:31:57;;;;;;;10.80;3.95;;;9.90;99.90;;;;;;5052872;28;20174;-80
2023/01/05 10:34:51;;;;;;;8.95;4.05;;;9.90;99.90;;;;;;5052905;28;20181;-81
2023/01/05 10:37:34;;;;;;;12.05;3.50;;;10.00;99.90;;;;;;5053115;28;20206;-82
2023/01/05 10:40:14;;;;;;;13.73;4.70;;;10.00;99.90;;;;;;5053900;28;20232;-81
2023/01/05 10:43:13;;;;;;;8.13;3.30;;;10.00;99.90;;;;;;5053961;28;20174;-81
2023/01/05 10:45:40;;;;;;;9.35;3.63;;;10.00;99.90;;;;;;5037110;28;20186;-81
2023/01/05 10:48:14;;;;;;;13.45;3.45;;;10.00;99.90;;;;;;5053912;28;20293;-80
2023/01/05 10:51:24;;;;;;;9.75;4.30;;;10.00;99.90;;;;;;5053260;28;20200;-80
2023/01/05 10:53:50;;;;;;;7.28;2.63;;;9.90;99.90;;;;;;5053506;28;20170;-80
2023/01/05 10:56:28;;;;;;;7.85;2.63;;;10.10;99.90;;;;;;5053358;28;20214;-80
2023/01/05 10:59:10;;;;;;;7.82;2.88;;;10.10;99.90;;;;;;5037140;28;20740;-81
2023/01/05 11:01:37;;;;;;;9.05;2.38;;;10.00;99.90;;;;;;5053837;28;20210;-80
2023/01/05 11:04:18;;;;;;;8.70;2.40;;;9.90;99.90;;;;;;5055523;28;20204;-80
2023/01/05 11:07:05;;;;;;;8.05;2.60;;;10.00;99.90;;;;;;5056150;28;20259;-81
2023/01/05 11:09:31;;;;;;;9.35;2.40;;;10.00;99.90;;;;;;5054413;28;20189;-81
2023/01/05 11:12:00;;;;;;;8.43;3.10;;;10.00;99.90;;;;;;5052706;28;20175;-80
2023/01/05 11:14:28;;;;;;;20.10;11.90;;;10.10;99.90;;;;;;5052587;28;20645;-80
2023/01/05 11:17:00;;;;;;;13.15;6.40;;;10.20;99.90;;;;;;5052621;28;20202;-81
2023/01/05 11:19:31;;;;;;;11.00;5.15;;;10.30;99.90;;;;;;5053470;28;20174;-80
2023/01/05 11:21:57;;;;;;;8.07;3.03;;;10.30;99.90;;;;;;5052584;28;20178;-81
2023/01/05 11:24:34;;;;;;;9.75;3.45;;;10.30;99.90;;;;;;5052523;28;20174;-80
2023/01/05 11:27:02;;;;;;;10.00;3.85;;;10.30;99.90;;;;;;5052152;28;20245;-80
2023/01/05 11:29:28;;;;;;;9.52;5.30;;;10.30;99.90;;;;;;5052432;28;20178;-80
2023/01/05 11:32:00;;;;;;;9.65;3.95;;;10.40;99.90;;;;;;5053146;28;20178;-80
2023/01/05 11:34:50;;;;;;;9.13;4.30;;;10.50;99.90;;;;;;5053564;28;20261;-80
2023/01/05 11:37:24;;;;;;;10.05;3.53;;;10.50;99.90;;;;;;5053257;28;20224;-80
2023/01/05 11:39:55;;;;;;;10.65;3.53;;;10.40;99.90;;;;;;5054784;28;20177;-80
2023/01/05 11:42:24;;;;;;;7.65;4.65;;;10.30;99.90;;;;;;5052139;28;20186;-79
2023/01/05 11:45:00;;;;;;;12.07;4.10;;;10.20;99.90;;;;;;5051844;28;20181;-84
2023/01/05 11:47:27;;;;;;;10.73;4.95;;;10.30;99.90;;;;;;5051781;28;20320;-79
2023/01/05 11:50:13;;;;;;;9.90;4.80;;;10.30;99.90;;;;;;5053276;28;20216;-79
2023/01/05 11:52:40;;;;;;;10.32;4.82;;;10.40;99.90;;;;;;5053807;28;20510;-79
2023/01/05 11:55:24;;;;;;;13.18;6.65;;;10.40;99.90;;;;;;5051706;28;20641;-79
2023/01/05 11:57:51;;;;;;;10.32;4.82;;;10.60;99.90;;;;;;5051669;28;20206;-80
2023/01/05 12:00:32;;;;;;;9.95;6.88;;;10.60;99.90;;;;;;5053290;28;20213;-79
2023/01/05 12:03:13;;;;;;;15.85;6.43;;;10.80;99.90;;;;;;5056275;28;20208;-79
2023/01/05 12:09:23;;;;;;;9.68;2.85;;;10.70;99.90;;;;;;5056552;28;20170;-79
2023/01/05 12:11:48;;;;;;;7.47;2.67;;;10.70;99.90;;;;;;5056204;28;20167;-79
2023/01/05 12:14:42;;;;;;;10.18;3.08;;;10.70;99.90;;;;;;5055176;28;20178;-79
2023/01/05 12:17:18;;;;;;;6.85;2.70;;;10.60;99.90;;;;;;5056098;28;20250;-79
2023/01/05 12:20:11;;;;;;;7.05;2.78;;;10.50;99.90;;;;;;5055866;28;20178;-79
2023/01/05 12:23:01;;;;;;;9.60;4.03;;;10.40;99.90;;;;;;5055158;28;20193;-78
2023/01/05 12:25:52;;;;;;;11.25;7.00;;;10.30;99.90;;;;;;5057268;28;20232;-79
2023/01/05 12:28:50;;;;;;;16.13;10.68;;;10.20;99.90;;;;;;5054800;28;20206;-79
2023/01/05 12:31:42;;;;;;;10.63;5.57;;;10.10;99.90;;;;;;5056287;28;20167;-79
2023/01/05 12:34:13;;;;;;;11.10;4.85;;;10.10;99.90;;;;;;5055976;28;20190;-80
2023/01/05 12:36:55;;;;;;;11.63;4.80;;;10.00;99.90;;;;;;5055593;28;20198;-80
2023/01/05 12:39:33;;;;;;;10.65;6.07;;;9.90;99.90;;;;;;5055754;28;20174;-80
2023/01/05 12:42:48;;;;;;;10.80;5.57;;;9.90;99.90;;;;;;5055583;28;20180;-79
2023/01/05 12:46:02;;;;;;;10.50;5.15;;;9.90;99.90;;;;;;5046141;28;20236;-80
2023/01/05 12:48:28;;;;;;;17.27;10.48;;;9.90;99.90;;;;;;5054442;28;20344;-80
2023/01/05 12:51:23;;;;;;;12.15;7.57;;;10.00;99.90;;;;;;5056266;28;20242;-80
2023/01/05 12:54:01;;;;;;;8.23;4.70;;;10.00;99.90;;;;;;5055881;28;20174;-80
2023/01/05 12:57:02;;;;;;;8.10;2.80;;;10.00;99.90;;;;;;5054877;28;20205;-79
2023/01/05 12:59:56;;;;;;;9.13;2.70;;;10.00;99.90;;;;;;5051132;28;20182;-79
2023/01/05 13:02:31;;;;;;;12.25;3.20;;;9.90;99.90;;;;;;5055987;28;20184;-79
2023/01/05 13:05:40;;;;;;;8.48;3.03;;;9.90;99.90;;;;;;5054419;28;20659;-79
2023/01/05 13:08:16;;;;;;;9.50;3.08;;;9.80;99.90;;;;;;5052397;28;20214;-80
2023/01/05 13:10:48;;;;;;;12.45;2.80;;;9.90;99.90;;;;;;5054860;28;20257;-80
2023/01/05 13:13:19;;;;;;;9.15;3.05;;;9.90;99.90;;;;;;5055112;28;20166;-79
2023/01/05 13:15:53;;;;;;;9.35;2.92;;;10.00;99.90;;;;;;5054297;28;20177;-80
2023/01/05 13:18:24;;;;;;;10.73;2.90;;;10.00;99.90;;;;;;5055155;28;20264;-80
2023/01/05 13:21:09;;;;;;;7.97;2.28;;;10.00;99.90;;;;;;5054461;28;20178;-80
2023/01/05 13:24:07;;;;;;;6.22;2.58;;;10.10;99.90;;;;;;5055774;28;20175;-80
2023/01/05 13:26:36;;;;;;;8.10;2.50;;;10.20;99.90;;;;;;5054773;28;20205;-80
2023/01/05 13:29:03;;;;;;;7.68;2.75;;;10.30;99.90;;;;;;5056474;28;20226;-80
2023/01/05 13:31:34;;;;;;;8.88;2.80;;;10.30;99.90;;;;;;5057015;28;20170;-80
2023/01/05 13:34:44;;;;;;;9.13;2.28;;;10.30;99.90;;;;;;5055721;28;20186;-80
2023/01/05 13:37:23;;;;;;;7.05;2.90;;;10.20;99.90;;;;;;5034174;28;20245;-80
2023/01/05 13:40:13;;;;;;;8.07;2.90;;;10.10;99.90;;;;;;5056557;28;20564;-79
2023/01/05 13:42:51;;;;;;;6.88;2.80;;;10.00;99.90;;;;;;5056160;28;20170;-79
2023/01/05 13:45:51;;;;;;;8.63;2.80;;;10.00;99.90;;;;;;5055613;28;20178;-83
2023/01/05 13:48:30;;;;;;;7.50;2.92;;;9.90;99.90;;;;;;5053660;28;20206;-79
2023/01/05 13:54:38;;;;;;;7.57;2.70;;;9.90;99.90;;;;;;5055161;28;20197;-79
2023/01/05 13:57:11;;;;;;;8.75;3.17;;;9.90;99.90;;;;;;5053652;28;20255;-79
2023/01/05 13:59:38;;;;;;;13.48;7.70;;;9.90;99.90;;;;;;5054450;28;20242;-80